Time;durP1;ratioP1;P1;durP2;ratioP2;P2;SDS_P1;SDS_P2;PMS_P1;PMS_P2;Temp;Humidity;BMP_temperature;BMP_pressure;BME280_temperature;BME280_humidity;BME280_pressure;Samples;Min_cycle;Max_cycle;Signal;HPM_P1;HPM_P2
2021/12/16 00:33:17;;;;;;;7.62;5.50;;;;;;;;;;4135938;34;20124;-63
2021/12/16 00:35:47;;;;;;;8.60;5.68;;;;;;;;;;4135855;34;20216;-63
2021/12/16 00:38:14;;;;;;;7.57;5.85;;;;;;;;;;4123530;34;20119;-62
2021/12/16 00:40:42;;;;;;;12.45;5.90;;;;;;;;;;4122410;34;20092;-62
2021/12/16 00:43:25;;;;;;;7.40;5.43;;;;;;;;;;4122499;34;20104;-63
2021/12/16 00:48:38;;;;;;;7.18;6.18;;;;;;;;;;4122563;34;20127;-61
2021/12/16 00:54:10;;;;;;;7.95;6.22;;;;;;;;;;4127198;34;20108;-63
2021/12/16 00:56:42;;;;;;;10.77;8.02;;;;;;;;;;4130638;34;20087;-62
2021/12/16 00:59:10;;;;;;;10.20;6.93;;;;;;;;;;4114611;34;20467;-62
2021/12/16 01:33:29;;;;;;;9.43;7.32;;;;;;;;;;4109369;34;20124;-63
2021/12/16 01:35:02;;;;;;;9.75;7.47;;;;;;;;;;4137267;34;20127;-62
2021/12/16 01:50:37;;;;;;;8.38;6.75;;;;;;;;;;4137377;34;20115;-63
2021/12/16 01:55:45;;;;;;;9.55;6.50;;;;;;;;;;4137083;34;20124;-63
2021/12/16 01:58:21;;;;;;;8.20;6.68;;;;;;;;;;4137193;34;20170;-63
2021/12/16 02:01:10;;;;;;;8.10;6.35;;;;;;;;;;4137294;34;20192;-63
2021/12/16 02:03:43;;;;;;;8.13;5.62;;;;;;;;;;4137181;34;20228;-63
2021/12/16 02:08:41;;;;;;;9.93;6.35;;;;;;;;;;4137047;34;20545;-63
2021/12/16 02:37:36;;;;;;;9.93;7.75;;;;;;;;;;4137121;34;20107;-63
2021/12/16 02:40:06;;;;;;;9.52;7.12;;;;;;;;;;4136891;34;20111;-63
2021/12/16 02:42:35;;;;;;;10.07;6.82;;;;;;;;;;4136890;34;20200;-63
2021/12/16 02:50:19;;;;;;;11.27;7.18;;;;;;;;;;4136693;34;20103;-63
2021/12/16 02:52:46;;;;;;;9.15;7.32;;;;;;;;;;4136868;34;20116;-63
2021/12/16 02:55:14;;;;;;;13.23;8.18;;;;;;;;;;4135559;34;20203;-62
2021/12/16 02:57:48;;;;;;;13.43;8.07;;;;;;;;;;4129041;34;20219;-63
2021/12/16 03:00:15;;;;;;;10.57;8.13;;;;;;;;;;4131878;34;20542;-63
2021/12/16 03:02:46;;;;;;;11.93;8.15;;;;;;;;;;4136737;34;20571;-63
2021/12/16 03:05:13;;;;;;;11.18;8.75;;;;;;;;;;4126653;34;20107;-63
2021/12/16 03:07:39;;;;;;;13.40;8.73;;;;;;;;;;4110890;34;20137;-63
2021/12/16 03:13:21;;;;;;;11.25;8.23;;;;;;;;;;4128281;34;20282;-63
2021/12/16 03:21:18;;;;;;;12.77;9.23;;;;;;;;;;4136501;34;20134;-63
2021/12/16 03:24:08;;;;;;;18.33;9.23;;;;;;;;;;4136636;34;20129;-62
2021/12/16 03:27:06;;;;;;;13.98;8.70;;;;;;;;;;4126529;34;20178;-62
2021/12/16 03:32:18;;;;;;;11.88;8.50;;;;;;;;;;4123128;34;20423;-61
2021/12/16 03:35:03;;;;;;;16.33;9.88;;;;;;;;;;4122919;34;20122;-63
2021/12/16 03:37:31;;;;;;;16.37;9.70;;;;;;;;;;4123087;34;20477;-62
2021/12/16 03:39:59;;;;;;;15.38;9.95;;;;;;;;;;4123061;34;20124;-62
2021/12/16 03:42:37;;;;;;;14.23;9.80;;;;;;;;;;4109931;34;20553;-62
2021/12/16 03:48:12;;;;;;;15.95;9.32;;;;;;;;;;4121777;34;20115;-63
2021/12/16 03:50:38;;;;;;;13.68;9.27;;;;;;;;;;4122798;34;20127;-63
2021/12/16 03:53:04;;;;;;;16.20;9.45;;;;;;;;;;4122736;34;20618;-64
2021/12/16 03:55:31;;;;;;;12.13;8.73;;;;;;;;;;4110127;34;20106;-65
2021/12/16 03:57:57;;;;;;;11.95;8.43;;;;;;;;;;4118813;34;20935;-63
2021/12/16 04:00:28;;;;;;;11.45;7.85;;;;;;;;;;4135930;34;20095;-63
2021/12/16 04:02:54;;;;;;;12.95;8.57;;;;;;;;;;4136176;34;20099;-63
2021/12/16 04:05:21;;;;;;;13.07;8.27;;;;;;;;;;4135908;34;20122;-63
2021/12/16 04:07:48;;;;;;;10.23;7.70;;;;;;;;;;4123503;34;20134;-63
2021/12/16 04:10:39;;;;;;;12.02;8.30;;;;;;;;;;4135905;34;20112;-62
2021/12/16 04:13:08;;;;;;;13.48;8.68;;;;;;;;;;4123508;34;20115;-62
2021/12/16 04:15:34;;;;;;;12.25;8.27;;;;;;;;;;4135911;34;21050;-62
2021/12/16 04:18:01;;;;;;;12.82;7.75;;;;;;;;;;4123773;34;20106;-62
2021/12/16 04:20:27;;;;;;;9.55;7.95;;;;;;;;;;4135671;34;20167;-62
2021/12/16 04:22:54;;;;;;;13.60;8.50;;;;;;;;;;4135934;34;20760;-63
2021/12/16 04:25:43;;;;;;;10.35;6.85;;;;;;;;;;4135662;34;20182;-63
2021/12/16 04:28:18;;;;;;;9.85;7.35;;;;;;;;;;4135799;34;20120;-63
2021/12/16 04:30:44;;;;;;;11.43;7.50;;;;;;;;;;4123140;34;20134;-64
2021/12/16 04:33:10;;;;;;;9.98;7.28;;;;;;;;;;4135875;34;20667;-65
2021/12/16 04:35:37;;;;;;;10.48;7.57;;;;;;;;;;4123050;34;20184;-64
2021/12/16 04:38:05;;;;;;;8.07;6.80;;;;;;;;;;4123961;34;20115;-65
2021/12/16 04:40:31;;;;;;;12.37;7.43;;;;;;;;;;4137712;34;20219;-65
2021/12/16 04:43:02;;;;;;;11.32;7.43;;;;;;;;;;4114042;34;20132;-64
2021/12/16 04:45:29;;;;;;;10.98;7.45;;;;;;;;;;4137884;34;20096;-65
2021/12/16 04:47:55;;;;;;;11.70;7.85;;;;;;;;;;4125212;34;20179;-65
2021/12/16 04:50:21;;;;;;;11.98;8.02;;;;;;;;;;4137635;34;20687;-65
2021/12/16 04:52:47;;;;;;;11.35;7.70;;;;;;;;;;4137544;34;20264;-65
2021/12/16 04:55:14;;;;;;;10.55;8.38;;;;;;;;;;4137651;34;20135;-65
2021/12/16 04:57:41;;;;;;;10.38;7.72;;;;;;;;;;4137518;34;20119;-67
2021/12/16 05:00:10;;;;;;;9.35;7.45;;;;;;;;;;4137482;34;20114;-65
2021/12/16 05:02:36;;;;;;;7.90;7.00;;;;;;;;;;4137519;34;20199;-64
2021/12/16 05:05:03;;;;;;;11.25;7.32;;;;;;;;;;4137428;34;20607;-65
2021/12/16 05:07:29;;;;;;;8.77;7.37;;;;;;;;;;4137368;34;20207;-65
2021/12/16 05:10:06;;;;;;;8.77;7.05;;;;;;;;;;4137559;34;20123;-65
2021/12/16 05:12:37;;;;;;;9.00;7.15;;;;;;;;;;4137516;34;20216;-65
2021/12/16 05:15:12;;;;;;;10.88;7.50;;;;;;;;;;4137336;34;20099;-65
2021/12/16 05:17:48;;;;;;;10.45;7.90;;;;;;;;;;4137420;34;20126;-63
2021/12/16 05:20:20;;;;;;;10.75;7.80;;;;;;;;;;4137240;34;20099;-66
2021/12/16 05:27:57;;;;;;;9.07;7.95;;;;;;;;;;4137342;34;20209;-64
2021/12/16 05:30:23;;;;;;;11.82;8.25;;;;;;;;;;4124828;34;20099;-64
2021/12/16 05:32:50;;;;;;;11.35;7.65;;;;;;;;;;4137422;34;20108;-65
2021/12/16 05:35:18;;;;;;;9.85;8.40;;;;;;;;;;4137068;34;20197;-64
2021/12/16 05:37:45;;;;;;;10.18;7.10;;;;;;;;;;4137327;34;20188;-64
2021/12/16 05:40:14;;;;;;;8.65;6.85;;;;;;;;;;4124642;34;20481;-63
2021/12/16 05:42:40;;;;;;;9.18;7.28;;;;;;;;;;4137270;34;20108;-65
2021/12/16 05:45:07;;;;;;;10.52;8.00;;;;;;;;;;4137069;34;20528;-65
2021/12/16 05:47:35;;;;;;;8.98;7.50;;;;;;;;;;4137192;34;20126;-65
2021/12/16 05:50:02;;;;;;;9.93;7.93;;;;;;;;;;4136244;34;20137;-65
2021/12/16 05:52:28;;;;;;;11.05;8.95;;;;;;;;;;4124778;34;20127;-65
2021/12/16 05:54:54;;;;;;;8.85;7.37;;;;;;;;;;4137071;34;20112;-65
2021/12/16 05:57:20;;;;;;;9.27;8.23;;;;;;;;;;4124397;34;20104;-65
2021/12/16 05:59:46;;;;;;;9.75;8.32;;;;;;;;;;4137270;34;20127;-66
2021/12/16 06:02:12;;;;;;;9.55;7.82;;;;;;;;;;4137131;34;20116;-65
2021/12/16 06:04:38;;;;;;;7.97;6.93;;;;;;;;;;4124464;34;20116;-66
2021/12/16 06:07:04;;;;;;;9.45;7.55;;;;;;;;;;4137099;34;20102;-66
2021/12/16 06:09:30;;;;;;;9.52;8.10;;;;;;;;;;4125029;34;20138;-65
2021/12/16 06:11:57;;;;;;;10.60;7.32;;;;;;;;;;4137022;34;20124;-65
2021/12/16 06:14:38;;;;;;;8.80;7.90;;;;;;;;;;4137244;34;20240;-67
2021/12/16 06:28:06;;;;;;;8.48;7.22;;;;;;;;;;4136913;34;20219;-66
2021/12/16 06:30:39;;;;;;;11.40;7.78;;;;;;;;;;4136890;34;20451;-66
2021/12/16 06:33:07;;;;;;;8.20;7.05;;;;;;;;;;4136995;34;20212;-66
2021/12/16 06:35:34;;;;;;;12.80;6.32;;;;;;;;;;4136851;34;20119;-67
2021/12/16 06:38:00;;;;;;;10.43;7.00;;;;;;;;;;4136910;34;20110;-67
2021/12/16 06:40:26;;;;;;;8.32;6.93;;;;;;;;;;4124216;34;20099;-67
2021/12/16 06:42:55;;;;;;;9.48;7.57;;;;;;;;;;4136952;34;20103;-67
2021/12/16 06:45:27;;;;;;;9.23;6.35;;;;;;;;;;4136760;34;20118;-66
2021/12/16 06:48:07;;;;;;;8.43;6.00;;;;;;;;;;4136858;34;20208;-66
2021/12/16 06:53:04;;;;;;;8.63;6.43;;;;;;;;;;4136715;34;20118;-66
2021/12/16 06:58:33;;;;;;;7.82;6.47;;;;;;;;;;4137028;34;20212;-66
2021/12/16 07:01:00;;;;;;;8.50;5.95;;;;;;;;;;4125666;34;20212;-68
2021/12/16 07:03:29;;;;;;;7.20;5.65;;;;;;;;;;4136757;34;20136;-67
2021/12/16 07:05:56;;;;;;;7.93;6.22;;;;;;;;;;4136547;34;20123;-66
2021/12/16 07:08:24;;;;;;;12.18;6.90;;;;;;;;;;4136905;34;20111;-63
2021/12/16 07:10:54;;;;;;;9.88;6.72;;;;;;;;;;4124280;34;20632;-66
2021/12/16 07:13:34;;;;;;;11.73;7.68;;;;;;;;;;4124222;34;20106;-67
2021/12/16 07:16:01;;;;;;;9.45;6.70;;;;;;;;;;4136597;34;20202;-66
2021/12/16 07:18:28;;;;;;;12.80;7.87;;;;;;;;;;4136568;34;20108;-66
2021/12/16 07:20:55;;;;;;;11.88;7.60;;;;;;;;;;4111599;34;20539;-66
2021/12/16 07:23:21;;;;;;;9.00;7.15;;;;;;;;;;4134529;34;20176;-66
2021/12/16 07:25:47;;;;;;;11.18;7.25;;;;;;;;;;4134407;34;20119;-66
2021/12/16 07:28:13;;;;;;;9.25;7.05;;;;;;;;;;4121844;34;20457;-66
2021/12/16 07:30:41;;;;;;;13.18;6.87;;;;;;;;;;4134437;34;20103;-66
2021/12/16 07:33:07;;;;;;;12.23;7.00;;;;;;;;;;4122162;34;20124;-66
2021/12/16 07:35:34;;;;;;;9.57;6.95;;;;;;;;;;4135862;34;20103;-66
2021/12/16 07:38:00;;;;;;;13.52;7.87;;;;;;;;;;4136449;34;20115;-66
2021/12/16 07:40:27;;;;;;;11.00;7.57;;;;;;;;;;4136527;34;20204;-66
2021/12/16 07:45:41;;;;;;;11.15;7.20;;;;;;;;;;4136481;34;20204;-66
2021/12/16 07:48:08;;;;;;;9.10;6.53;;;;;;;;;;4136244;34;20212;-66
2021/12/16 07:50:35;;;;;;;9.73;6.72;;;;;;;;;;4136346;34;20126;-65
2021/12/16 07:53:01;;;;;;;11.75;7.65;;;;;;;;;;4136491;34;20107;-66
2021/12/16 07:55:28;;;;;;;9.27;7.00;;;;;;;;;;4136604;34;20108;-68
2021/12/16 07:57:54;;;;;;;9.77;7.07;;;;;;;;;;4136137;34;20139;-65
2021/12/16 08:00:26;;;;;;;11.02;6.75;;;;;;;;;;4136063;34;20122;-66
2021/12/16 08:02:53;;;;;;;10.50;6.75;;;;;;;;;;4136457;34;20115;-66
2021/12/16 08:05:21;;;;;;;13.25;6.80;;;;;;;;;;4123706;34;20110;-66
2021/12/16 08:07:48;;;;;;;11.12;7.28;;;;;;;;;;4136020;34;20115;-65
2021/12/16 08:10:17;;;;;;;12.00;6.87;;;;;;;;;;4135940;34;20505;-66
2021/12/16 08:12:43;;;;;;;11.75;7.22;;;;;;;;;;4135014;34;20126;-66
2021/12/16 08:15:10;;;;;;;11.35;7.20;;;;;;;;;;4136004;34;20200;-66
2021/12/16 08:17:36;;;;;;;13.30;7.18;;;;;;;;;;4123636;34;20126;-66
2021/12/16 08:20:04;;;;;;;10.40;6.87;;;;;;;;;;4135816;34;20091;-67
2021/12/16 08:22:31;;;;;;;10.27;7.80;;;;;;;;;;4135831;34;20195;-67
2021/12/16 08:24:57;;;;;;;13.80;7.93;;;;;;;;;;4135757;34;20139;-67
2021/12/16 08:27:23;;;;;;;10.32;7.75;;;;;;;;;;4135835;34;20107;-66
2021/12/16 08:29:49;;;;;;;9.50;7.55;;;;;;;;;;4123319;34;20114;-67
2021/12/16 08:32:16;;;;;;;12.35;7.78;;;;;;;;;;4135951;34;20111;-67
2021/12/16 08:34:45;;;;;;;11.95;7.72;;;;;;;;;;4123375;34;20131;-66
2021/12/16 08:37:13;;;;;;;13.18;7.43;;;;;;;;;;4135786;34;20127;-66
2021/12/16 08:39:41;;;;;;;8.77;7.20;;;;;;;;;;4112483;34;20218;-66
2021/12/16 08:42:11;;;;;;;9.23;7.47;;;;;;;;;;4135765;34;20625;-67
2021/12/16 08:44:38;;;;;;;10.05;7.12;;;;;;;;;;4135873;34;20143;-66
2021/12/16 08:47:08;;;;;;;12.57;7.50;;;;;;;;;;4135615;34;20452;-67
2021/12/16 08:49:35;;;;;;;12.05;7.10;;;;;;;;;;4135807;34;20103;-67
2021/12/16 08:52:06;;;;;;;13.18;8.00;;;;;;;;;;4135553;34;20552;-68
2021/12/16 08:54:32;;;;;;;10.65;7.45;;;;;;;;;;4123111;34;20131;-68
2021/12/16 08:56:58;;;;;;;9.77;7.28;;;;;;;;;;4135598;34;20524;-67
2021/12/16 08:59:25;;;;;;;8.95;7.35;;;;;;;;;;4135363;34;20119;-67
2021/12/16 09:01:54;;;;;;;10.48;7.47;;;;;;;;;;4135539;34;20111;-67
2021/12/16 09:04:23;;;;;;;15.52;8.43;;;;;;;;;;4135480;34;20537;-67
2021/12/16 09:06:50;;;;;;;11.57;7.20;;;;;;;;;;4135462;34;20115;-67
2021/12/16 09:09:17;;;;;;;11.25;7.25;;;;;;;;;;4135581;34;20131;-67
2021/12/16 09:12:01;;;;;;;9.35;7.10;;;;;;;;;;4135340;34;20106;-68
2021/12/16 09:14:27;;;;;;;11.80;7.22;;;;;;;;;;4135370;34;20198;-67
2021/12/16 09:16:53;;;;;;;8.55;6.87;;;;;;;;;;4135372;34;20108;-66
2021/12/16 09:19:19;;;;;;;11.88;7.37;;;;;;;;;;4135535;34;20119;-68
2021/12/16 09:21:45;;;;;;;9.05;7.18;;;;;;;;;;4122776;34;20123;-62
2021/12/16 09:24:14;;;;;;;9.13;7.60;;;;;;;;;;4136065;34;20206;-62
2021/12/16 09:26:42;;;;;;;11.45;7.68;;;;;;;;;;4137396;34;20127;-62
2021/12/16 09:29:08;;;;;;;13.00;8.20;;;;;;;;;;4137158;34;20123;-61
2021/12/16 09:31:35;;;;;;;10.75;7.35;;;;;;;;;;4124903;34;20111;-61
2021/12/16 09:34:05;;;;;;;9.07;7.00;;;;;;;;;;4137446;34;20464;-61
2021/12/16 09:36:32;;;;;;;9.23;7.40;;;;;;;;;;4137400;34;20204;-62
2021/12/16 09:38:58;;;;;;;9.77;6.95;;;;;;;;;;4137261;34;20198;-62
2021/12/16 09:41:28;;;;;;;9.63;7.10;;;;;;;;;;4137329;34;20139;-62
2021/12/16 09:43:56;;;;;;;8.10;6.93;;;;;;;;;;4137461;34;20442;-63
2021/12/16 09:46:25;;;;;;;12.00;7.35;;;;;;;;;;4137275;34;20131;-62
2021/12/16 09:48:52;;;;;;;9.70;7.30;;;;;;;;;;4137283;34;20095;-62
2021/12/16 09:51:23;;;;;;;8.20;6.85;;;;;;;;;;4137331;34;20211;-62
2021/12/16 09:53:58;;;;;;;11.40;7.62;;;;;;;;;;4137203;34;20111;-63
2021/12/16 09:56:26;;;;;;;9.07;7.22;;;;;;;;;;4137200;34;20200;-62
2021/12/16 09:58:53;;;;;;;8.20;6.55;;;;;;;;;;4137036;34;20554;-61
2021/12/16 10:01:21;;;;;;;9.27;6.87;;;;;;;;;;4137034;34;20100;-62
2021/12/16 10:03:48;;;;;;;9.52;7.32;;;;;;;;;;4124546;34;20127;-61
2021/12/16 10:06:16;;;;;;;8.57;7.15;;;;;;;;;;4137060;34;20108;-62
2021/12/16 10:08:43;;;;;;;9.25;7.35;;;;;;;;;;4137398;34;20099;-62
2021/12/16 10:11:09;;;;;;;9.00;7.18;;;;;;;;;;4137087;34;20112;-62
2021/12/16 10:18:37;;;;;;;8.52;6.97;;;;;;;;;;4136994;34;20119;-61
2021/12/16 10:21:08;;;;;;;8.48;7.10;;;;;;;;;;4136957;34;20212;-61
2021/12/16 10:23:37;;;;;;;8.90;7.03;;;;;;;;;;4137072;34;20220;-61
2021/12/16 10:26:06;;;;;;;7.47;6.43;;;;;;;;;;4137004;34;20505;-61
2021/12/16 10:28:44;;;;;;;9.00;7.28;;;;;;;;;;4137049;34;20484;-61
2021/12/16 10:31:32;;;;;;;8.32;5.87;;;;;;;;;;4137190;34;20126;-61
2021/12/16 10:34:07;;;;;;;7.10;6.35;;;;;;;;;;4136712;34;20124;-62
2021/12/16 10:36:36;;;;;;;8.25;5.85;;;;;;;;;;4136350;34;20454;-62
2021/12/16 10:39:17;;;;;;;9.02;6.60;;;;;;;;;;4136657;34;20621;-61
2021/12/16 10:41:55;;;;;;;8.55;6.43;;;;;;;;;;4136909;34;20181;-61
2021/12/16 10:44:24;;;;;;;10.05;6.22;;;;;;;;;;4136913;34;20180;-61
2021/12/16 10:47:04;;;;;;;9.43;6.85;;;;;;;;;;4137217;34;20108;-61
2021/12/16 10:49:35;;;;;;;7.43;5.97;;;;;;;;;;4136951;34;20095;-61
2021/12/16 10:52:16;;;;;;;9.05;6.68;;;;;;;;;;4124530;34;20469;-61
2021/12/16 10:54:49;;;;;;;8.77;6.68;;;;;;;;;;4102458;34;20103;-61
2021/12/16 10:57:18;;;;;;;8.65;6.75;;;;;;;;;;4136660;34;20154;-61
2021/12/16 10:59:52;;;;;;;6.50;5.72;;;;;;;;;;4132327;34;20107;-60
2021/12/16 11:02:24;;;;;;;7.65;5.32;;;;;;;;;;4124345;34;20119;-61
2021/12/16 11:05:06;;;;;;;6.62;5.93;;;;;;;;;;4127300;34;20127;-61
2021/12/16 11:07:41;;;;;;;7.28;5.82;;;;;;;;;;4110700;34;20126;-62
2021/12/16 11:10:30;;;;;;;9.10;5.40;;;;;;;;;;4122719;34;20185;-60
2021/12/16 11:13:04;;;;;;;6.45;5.70;;;;;;;;;;4110503;34;20098;-61
2021/12/16 11:15:43;;;;;;;7.22;5.90;;;;;;;;;;4128614;34;20215;-61
2021/12/16 11:18:16;;;;;;;6.82;6.12;;;;;;;;;;4136322;34;20135;-61
2021/12/16 11:20:44;;;;;;;8.90;5.32;;;;;;;;;;4131581;34;20120;-61
2021/12/16 11:23:16;;;;;;;7.25;6.15;;;;;;;;;;4122646;34;20100;-61
2021/12/16 11:26:02;;;;;;;5.90;5.30;;;;;;;;;;4121701;34;20718;-62
2021/12/16 11:28:32;;;;;;;6.93;5.72;;;;;;;;;;4134511;34;20496;-61
2021/12/16 11:31:03;;;;;;;9.30;5.35;;;;;;;;;;4135496;34;20460;-62
2021/12/16 11:33:39;;;;;;;6.40;5.20;;;;;;;;;;4138077;34;20119;-61
2021/12/16 11:36:24;;;;;;;6.82;5.25;;;;;;;;;;4136389;34;20126;-61
2021/12/16 11:38:55;;;;;;;6.62;5.53;;;;;;;;;;4136439;34;20103;-62
2021/12/16 11:41:21;;;;;;;7.32;5.18;;;;;;;;;;4136335;34;20174;-62
2021/12/16 11:43:52;;;;;;;6.47;5.65;;;;;;;;;;4136379;34;20119;-61
2021/12/16 11:46:30;;;;;;;6.03;5.43;;;;;;;;;;4136265;34;20144;-61
2021/12/16 11:49:01;;;;;;;5.78;5.15;;;;;;;;;;4136429;34;20143;-62
2021/12/16 11:51:35;;;;;;;7.95;5.87;;;;;;;;;;4136331;34;20278;-61
2021/12/16 11:54:05;;;;;;;5.60;5.07;;;;;;;;;;4136194;34;20554;-61
2021/12/16 11:56:37;;;;;;;5.37;4.70;;;;;;;;;;4136195;34;20203;-60
2021/12/16 11:59:04;;;;;;;5.32;4.82;;;;;;;;;;4136086;34;20529;-61
2021/12/16 12:01:30;;;;;;;5.70;4.10;;;;;;;;;;4136172;34;20202;-60
2021/12/16 12:04:01;;;;;;;7.10;4.37;;;;;;;;;;4123998;34;20100;-59
2021/12/16 12:06:30;;;;;;;4.85;4.28;;;;;;;;;;4135958;34;20123;-61
2021/12/16 12:08:57;;;;;;;4.75;4.25;;;;;;;;;;4123611;34;20122;-60
2021/12/16 12:11:29;;;;;;;4.72;4.22;;;;;;;;;;4123707;34;20191;-61
2021/12/16 12:14:02;;;;;;;6.60;3.97;;;;;;;;;;4135910;34;20127;-60
2021/12/16 12:16:49;;;;;;;4.70;4.20;;;;;;;;;;4135965;34;20094;-61
2021/12/16 12:19:23;;;;;;;4.40;3.97;;;;;;;;;;4135771;34;20108;-61
2021/12/16 12:21:58;;;;;;;4.75;3.92;;;;;;;;;;4135933;34;20103;-62
2021/12/16 12:24:32;;;;;;;4.47;4.07;;;;;;;;;;4136019;34;20194;-62
2021/12/16 12:27:02;;;;;;;4.65;4.05;;;;;;;;;;4135869;34;20924;-67
2021/12/16 12:29:31;;;;;;;6.20;3.60;;;;;;;;;;4123448;34;20111;-66
2021/12/16 12:32:03;;;;;;;5.07;3.80;;;;;;;;;;4136076;34;20660;-66
2021/12/16 12:34:30;;;;;;;6.30;4.03;;;;;;;;;;4112192;34;20122;-67
2021/12/16 12:36:58;;;;;;;5.37;3.55;;;;;;;;;;4123411;34;20107;-66
2021/12/16 12:39:30;;;;;;;5.12;4.45;;;;;;;;;;4135921;34;20216;-67
2021/12/16 12:41:56;;;;;;;6.35;4.60;;;;;;;;;;4135509;34;20100;-64
2021/12/16 12:44:23;;;;;;;5.55;4.80;;;;;;;;;;4134328;34;20121;-65
2021/12/16 12:46:50;;;;;;;6.75;5.57;;;;;;;;;;4134516;34;20180;-66
2021/12/16 12:49:18;;;;;;;9.38;7.32;;;;;;;;;;4134721;34;20111;-65
2021/12/16 12:51:47;;;;;;;6.80;5.15;;;;;;;;;;4134674;34;20130;-65
2021/12/16 12:54:29;;;;;;;4.75;4.30;;;;;;;;;;4135531;34;20133;-65
2021/12/16 12:56:59;;;;;;;5.28;4.70;;;;;;;;;;4135630;34;20521;-64
2021/12/16 12:59:37;;;;;;;4.15;3.70;;;;;;;;;;4136334;34;20216;-63
2021/12/16 13:02:26;;;;;;;3.85;3.35;;;;;;;;;;4137430;34;20087;-63
2021/12/16 13:04:59;;;;;;;4.70;3.70;;;;;;;;;;4125441;34;20127;-62
2021/12/16 13:07:38;;;;;;;4.18;3.78;;;;;;;;;;4137646;34;20208;-62
2021/12/16 13:10:14;;;;;;;3.90;3.37;;;;;;;;;;4137586;34;20111;-61
2021/12/16 13:12:56;;;;;;;4.87;3.97;;;;;;;;;;4137461;34;20460;-61
2021/12/16 13:15:29;;;;;;;4.60;3.58;;;;;;;;;;4137543;34;20124;-62
2021/12/16 13:23:44;;;;;;;3.87;3.17;;;;;;;;;;4137089;34;20127;-65
2021/12/16 13:26:27;;;;;;;4.32;3.60;;;;;;;;;;4124425;34;20106;-66
2021/12/16 13:29:07;;;;;;;3.85;3.53;;;;;;;;;;4135343;34;20240;-65
2021/12/16 13:31:48;;;;;;;3.90;2.85;;;;;;;;;;4135320;34;20226;-65
2021/12/16 13:34:25;;;;;;;4.57;3.15;;;;;;;;;;4135426;34;20107;-65
2021/12/16 13:36:56;;;;;;;3.55;3.00;;;;;;;;;;4135255;34;20118;-65
2021/12/16 13:39:25;;;;;;;3.37;3.08;;;;;;;;;;4135249;34;20212;-66
2021/12/16 13:42:00;;;;;;;3.40;3.10;;;;;;;;;;4136583;34;20604;-66
2021/12/16 13:45:01;;;;;;;3.25;2.95;;;;;;;;;;4137336;34;20622;-66
2021/12/16 14:02:02;;;;;;;2.70;2.50;;;;;;;;;;4137179;34;20119;-65
2021/12/16 14:10:20;;;;;;;3.45;2.90;;;;;;;;;;4137006;34;20133;-65
2021/12/16 14:16:32;;;;;;;3.20;2.87;;;;;;;;;;4126536;34;20252;-65
2021/12/16 14:41:48;;;;;;;3.12;2.83;;;;;;;;;;4136774;34;20504;-62
2021/12/16 14:46:46;;;;;;;2.58;2.37;;;;;;;;;;4136708;34;20102;-64
2021/12/16 14:49:12;;;;;;;3.80;2.37;;;;;;;;;;4136957;34;20122;-61
2021/12/16 14:51:39;;;;;;;3.37;3.03;;;;;;;;;;4136752;34;20121;-61
2021/12/16 14:54:07;;;;;;;4.62;3.53;;;;;;;;;;4136932;34;20212;-61
2021/12/16 14:56:40;;;;;;;3.70;2.70;;;;;;;;;;4136606;34;20115;-61
2021/12/16 14:59:11;;;;;;;4.47;2.83;;;;;;;;;;4136626;34;20119;-60
2021/12/16 15:01:40;;;;;;;3.47;2.62;;;;;;;;;;4113353;34;20091;-61
2021/12/16 15:04:09;;;;;;;2.62;2.42;;;;;;;;;;4136483;34;20189;-62
2021/12/16 15:06:47;;;;;;;3.55;2.72;;;;;;;;;;4136454;34;20125;-61
2021/12/16 15:11:51;;;;;;;2.65;2.45;;;;;;;;;;4123912;34;20091;-68
2021/12/16 15:39:26;;;;;;;2.25;2.05;;;;;;;;;;4136623;34;20151;-62
2021/12/16 15:44:50;;;;;;;4.20;2.28;;;;;;;;;;4136057;34;20139;-63
2021/12/16 15:47:20;;;;;;;2.20;2.00;;;;;;;;;;4136240;34;20488;-62
2021/12/16 15:49:47;;;;;;;4.07;2.40;;;;;;;;;;4136192;34;20171;-63
2021/12/16 15:52:13;;;;;;;2.65;2.30;;;;;;;;;;4134910;34;20138;-62
2021/12/16 15:54:46;;;;;;;3.20;2.30;;;;;;;;;;4135842;34;20127;-63
2021/12/16 15:57:12;;;;;;;4.03;3.25;;;;;;;;;;4125999;34;20490;-62
2021/12/16 15:59:43;;;;;;;4.68;3.50;;;;;;;;;;4122916;34;20548;-62
2021/12/16 16:02:09;;;;;;;2.62;2.42;;;;;;;;;;4122415;34;20123;-63
2021/12/16 16:04:37;;;;;;;3.25;2.50;;;;;;;;;;4122406;34;20747;-64
2021/12/16 16:07:06;;;;;;;2.45;2.25;;;;;;;;;;4122538;34;20104;-64
2021/12/16 16:09:40;;;;;;;2.42;2.22;;;;;;;;;;4121366;34;20457;-64
2021/12/16 16:12:10;;;;;;;3.03;2.62;;;;;;;;;;4122522;34;20531;-63
2021/12/16 16:14:39;;;;;;;2.70;2.50;;;;;;;;;;4122202;34;20119;-63
2021/12/16 16:17:13;;;;;;;3.78;2.60;;;;;;;;;;4122595;34;20526;-63
2021/12/16 16:19:42;;;;;;;2.53;2.33;;;;;;;;;;4122716;34;20158;-65
2021/12/16 16:22:09;;;;;;;3.33;3.03;;;;;;;;;;4121232;34;20105;-65
2021/12/16 16:24:36;;;;;;;2.87;2.58;;;;;;;;;;4122518;34;20612;-65
2021/12/16 16:27:09;;;;;;;2.92;2.62;;;;;;;;;;4133275;34;20122;-64
2021/12/16 16:29:37;;;;;;;3.25;2.55;;;;;;;;;;4122446;34;20151;-66
2021/12/16 16:36:18;;;;;;;3.10;2.80;;;;;;;;;;4088184;34;20196;-66
2021/12/16 16:42:40;;;;;;;3.05;2.75;;;;;;;;;;1323427;32;20198;-66
2021/12/16 16:45:32;;;;;;;3.37;3.07;;;;;;;;;;4056045;35;20139;-66
2021/12/16 16:48:14;;;;;;;3.45;2.75;;;;;;;;;;4125639;34;20213;-63
2021/12/16 16:50:50;;;;;;;3.17;2.87;;;;;;;;;;4137634;34;20134;-66
2021/12/16 16:53:31;;;;;;;3.10;2.80;;;;;;;;;;4106625;34;20180;-65
2021/12/16 16:56:02;;;;;;;2.72;2.53;;;;;;;;;;4095934;34;20245;-61
2021/12/16 16:59:03;;;;;;;3.17;2.87;;;;;;;;;;4062952;35;20152;-65
2021/12/16 17:02:35;;;;;;;3.08;2.78;;;;;;;;;;4080276;35;20120;-63
2021/12/16 17:06:02;;;;;;;3.40;2.80;;;;;;;;;;4030434;35;20095;-63
2021/12/16 17:20:21;;;;;;;2.78;2.58;;;;;;;;;;4052130;35;20561;-62
2021/12/16 17:26:29;;;;;;;3.08;2.70;;;;;;;;;;3428451;32;20116;-71
2021/12/16 17:39:26;;;;;;;2.72;2.53;;;;;;;;;;4339114;28;20138;-68
2021/12/16 17:41:55;;;;;;;4.18;2.67;;;;;;;;;;4146210;34;20113;-68
2021/12/16 17:44:21;;;;;;;4.43;4.03;;;;;;;;;;4140303;34;20110;-66
2021/12/16 17:46:54;;;;;;;4.72;4.30;;;;;;;;;;4150742;34;20194;-68
2021/12/16 17:49:20;;;;;;;2.72;2.53;;;;;;;;;;4143347;34;20127;-68
2021/12/16 17:51:46;;;;;;;3.72;2.70;;;;;;;;;;4124731;34;20127;-67
2021/12/16 17:54:13;;;;;;;2.55;2.35;;;;;;;;;;4124701;34;20115;-67
2021/12/16 17:56:52;;;;;;;2.75;2.42;;;;;;;;;;4125140;34;20118;-68
2021/12/16 17:59:18;;;;;;;2.92;2.62;;;;;;;;;;4150847;34;20528;-69
2021/12/16 18:01:47;;;;;;;3.03;2.72;;;;;;;;;;4138022;34;20102;-70
2021/12/16 18:04:19;;;;;;;2.70;2.40;;;;;;;;;;4150785;34;20191;-65
2021/12/16 18:07:06;;;;;;;2.75;2.45;;;;;;;;;;4150622;34;20118;-66
2021/12/16 18:09:59;;;;;;;3.30;2.50;;;;;;;;;;4126737;34;20227;-66
2021/12/16 18:16:30;;;;;;;2.83;2.37;;;;;;;;;;4136076;34;20183;-66
2021/12/16 18:19:26;;;;;;;2.90;2.60;;;;;;;;;;4099932;34;20127;-66
2021/12/16 18:21:55;;;;;;;2.35;2.15;;;;;;;;;;4137075;34;20119;-67
2021/12/16 18:24:34;;;;;;;2.37;2.10;;;;;;;;;;4124643;34;20127;-66
2021/12/16 18:27:00;;;;;;;2.40;2.20;;;;;;;;;;4137250;34;20126;-64
2021/12/16 18:29:31;;;;;;;2.45;2.22;;;;;;;;;;4136948;34;20110;-64
2021/12/16 18:31:57;;;;;;;2.70;2.50;;;;;;;;;;4122189;34;20205;-65
2021/12/16 18:34:28;;;;;;;3.05;2.75;;;;;;;;;;4121972;34;20527;-64
2021/12/16 18:36:59;;;;;;;2.42;2.12;;;;;;;;;;4136935;34;20123;-65
2021/12/16 18:39:35;;;;;;;2.33;2.10;;;;;;;;;;4124332;34;20119;-65
2021/12/16 18:42:08;;;;;;;2.17;1.98;;;;;;;;;;4136794;34;20103;-65
2021/12/16 18:44:45;;;;;;;2.40;2.20;;;;;;;;;;4136746;34;20186;-65
2021/12/16 18:47:42;;;;;;;2.22;2.03;;;;;;;;;;4136873;34;20098;-66
2021/12/16 18:55:39;;;;;;;2.60;2.40;;;;;;;;;;4123497;34;20096;-66
2021/12/16 18:58:07;;;;;;;2.92;2.50;;;;;;;;;;4122901;34;20599;-66
2021/12/16 19:00:35;;;;;;;2.30;2.10;;;;;;;;;;4123191;34;20207;-65
2021/12/16 19:03:01;;;;;;;2.70;2.50;;;;;;;;;;4123300;34;20214;-66
2021/12/16 19:05:27;;;;;;;2.70;2.50;;;;;;;;;;4123139;34;20127;-65
2021/12/16 19:07:54;;;;;;;2.70;2.50;;;;;;;;;;4110618;34;20123;-65
2021/12/16 19:10:20;;;;;;;2.42;2.22;;;;;;;;;;4122926;34;20146;-66
2021/12/16 19:12:48;;;;;;;3.12;2.83;;;;;;;;;;4123245;34;20118;-65
2021/12/16 19:15:22;;;;;;;3.15;2.85;;;;;;;;;;4128676;34;20216;-66
2021/12/16 19:17:49;;;;;;;3.03;2.73;;;;;;;;;;4136724;34;20453;-65
2021/12/16 19:20:19;;;;;;;3.33;3.03;;;;;;;;;;4136468;34;20154;-66
2021/12/16 19:22:45;;;;;;;2.97;2.62;;;;;;;;;;4136609;34;20099;-66
2021/12/16 19:25:12;;;;;;;3.22;2.70;;;;;;;;;;4136434;34;20528;-65
2021/12/16 19:27:39;;;;;;;3.00;2.70;;;;;;;;;;4136478;34;20108;-65
2021/12/16 19:30:08;;;;;;;5.43;3.10;;;;;;;;;;4136249;34;20107;-65
2021/12/16 19:32:34;;;;;;;3.12;2.90;;;;;;;;;;4136535;34;20548;-65
2021/12/16 19:35:01;;;;;;;4.25;2.75;;;;;;;;;;4136386;34;20135;-65
2021/12/16 19:37:30;;;;;;;3.50;3.10;;;;;;;;;;4136374;34;20124;-65
2021/12/16 19:39:57;;;;;;;3.70;3.35;;;;;;;;;;4136337;34;20117;-65
2021/12/16 19:42:23;;;;;;;3.30;3.00;;;;;;;;;;4136449;34;20119;-65
2021/12/16 19:44:50;;;;;;;3.78;3.37;;;;;;;;;;4136377;34;20112;-66
2021/12/16 19:47:16;;;;;;;3.45;3.15;;;;;;;;;;4136211;34;20110;-66
2021/12/16 19:49:42;;;;;;;3.22;2.92;;;;;;;;;;4123611;34;20190;-65
2021/12/16 19:52:08;;;;;;;4.50;3.50;;;;;;;;;;4136112;34;20107;-65